Terminal Aerodrome Forecast
Issued by NWS Mt. Holly, NJ

Home | Current Version | Previous Version | Text Only | Print | Product List | Glossary On
Versions: 1 2 3 4 5 6 7 8 9 10 11 12 13 14 15 16 17 18 19 20 21 22 23 24 25 26 27 28 29 30
759
FTUS41 KPHI 251944 AAA
TAFTTN
TAF AMD
KTTN 251944Z 2520/2618 02005KT P6SM VCSH OVC004
     FM252100 VRB03KT P6SM OVC008
     FM252300 VRB02KT P6SM OVC020
     FM260800 VRB02KT P6SM BKN050
      TEMPO 2608/2611 3SM BR
     FM261300 31006KT P6SM SCT210=

USA.gov is the U.S. government's official web portal to all federal, state and local government web resources and services.